sensor_id;sensor_type;location;lat;lon;timestamp;temperature;humidity
26990;DHT22;14537;47.788;11.858;2024-02-28T00:00:45;2.40;99.90
26990;DHT22;14537;47.788;11.858;2024-02-28T00:03:11;2.30;99.90
26990;DHT22;14537;47.788;11.858;2024-02-28T00:05:36;2.30;99.90
26990;DHT22;14537;47.788;11.858;2024-02-28T00:08:02;2.20;99.90
26990;DHT22;14537;47.788;11.858;2024-02-28T00:10:28;2.20;99.90
26990;DHT22;14537;47.788;11.858;2024-02-28T00:12:53;2.20;99.90
26990;DHT22;14537;47.788;11.858;2024-02-28T00:15:19;2.20;99.90
26990;DHT22;14537;47.788;11.858;2024-02-28T00:17:44;2.20;99.90
26990;DHT22;14537;47.788;11.858;2024-02-28T00:20:10;2.20;99.90
26990;DHT22;14537;47.788;11.858;2024-02-28T00:22:37;2.20;99.90
26990;DHT22;14537;47.788;11.858;2024-02-28T00:25:03;2.20;99.90
26990;DHT22;14537;47.788;11.858;2024-02-28T00:27:30;2.20;99.90
26990;DHT22;14537;47.788;11.858;2024-02-28T00:29:56;2.20;99.90
26990;DHT22;14537;47.788;11.858;2024-02-28T00:32:21;2.20;99.90
26990;DHT22;14537;47.788;11.858;2024-02-28T00:34:47;2.30;99.90
26990;DHT22;14537;47.788;11.858;2024-02-28T00:37:13;2.30;99.90
26990;DHT22;14537;47.788;11.858;2024-02-28T00:39:38;2.40;99.90
26990;DHT22;14537;47.788;11.858;2024-02-28T00:42:04;2.40;99.90
26990;DHT22;14537;47.788;11.858;2024-02-28T00:44:30;2.50;99.90
26990;DHT22;14537;47.788;11.858;2024-02-28T00:46:55;2.50;99.90
26990;DHT22;14537;47.788;11.858;2024-02-28T00:49:21;2.50;99.90
26990;DHT22;14537;47.788;11.858;2024-02-28T00:51:47;2.50;99.90
26990;DHT22;14537;47.788;11.858;2024-02-28T00:54:13;2.60;99.90
26990;DHT22;14537;47.788;11.858;2024-02-28T00:56:38;2.60;99.90
26990;DHT22;14537;47.788;11.858;2024-02-28T00:59:04;2.70;99.90
26990;DHT22;14537;47.788;11.858;2024-02-28T01:01:31;2.70;99.90
26990;DHT22;14537;47.788;11.858;2024-02-28T01:03:57;2.70;99.90
26990;DHT22;14537;47.788;11.858;2024-02-28T01:06:23;2.80;99.90
26990;DHT22;14537;47.788;11.858;2024-02-28T01:08:48;2.80;99.90
26990;DHT22;14537;47.788;11.858;2024-02-28T01:11:14;2.80;99.90
26990;DHT22;14537;47.788;11.858;2024-02-28T01:13:39;2.80;99.90
26990;DHT22;14537;47.788;11.858;2024-02-28T01:16:05;2.80;99.90
26990;DHT22;14537;47.788;11.858;2024-02-28T01:18:31;2.80;99.90
26990;DHT22;14537;47.788;11.858;2024-02-28T01:20:57;2.90;99.90
26990;DHT22;14537;47.788;11.858;2024-02-28T01:23:23;2.90;99.90
26990;DHT22;14537;47.788;11.858;2024-02-28T01:25:49;2.90;99.90
26990;DHT22;14537;47.788;11.858;2024-02-28T01:28:14;2.90;99.90
26990;DHT22;14537;47.788;11.858;2024-02-28T01:30:40;2.80;99.90
26990;DHT22;14537;47.788;11.858;2024-02-28T01:33:05;2.80;99.90
26990;DHT22;14537;47.788;11.858;2024-02-28T01:35:31;2.80;99.90
26990;DHT22;14537;47.788;11.858;2024-02-28T01:37:57;2.70;99.90
26990;DHT22;14537;47.788;11.858;2024-02-28T01:40:22;2.70;99.90
26990;DHT22;14537;47.788;11.858;2024-02-28T01:42:48;2.80;99.90
26990;DHT22;14537;47.788;11.858;2024-02-28T01:45:14;2.80;99.90
26990;DHT22;14537;47.788;11.858;2024-02-28T01:47:41;2.90;99.90
26990;DHT22;14537;47.788;11.858;2024-02-28T01:50:07;3.00;99.90
26990;DHT22;14537;47.788;11.858;2024-02-28T01:52:34;2.90;99.90
26990;DHT22;14537;47.788;11.858;2024-02-28T01:55:00;2.90;99.90
26990;DHT22;14537;47.788;11.858;2024-02-28T01:57:27;2.90;99.90
26990;DHT22;14537;47.788;11.858;2024-02-28T01:59:53;2.80;99.90
26990;DHT22;14537;47.788;11.858;2024-02-28T02:02:20;2.80;99.90
26990;DHT22;14537;47.788;11.858;2024-02-28T02:04:45;2.80;99.90
26990;DHT22;14537;47.788;11.858;2024-02-28T02:07:11;2.80;99.90
26990;DHT22;14537;47.788;11.858;2024-02-28T02:09:37;2.70;99.90
26990;DHT22;14537;47.788;11.858;2024-02-28T02:12:03;2.70;99.90
26990;DHT22;14537;47.788;11.858;2024-02-28T02:14:28;2.70;99.90
26990;DHT22;14537;47.788;11.858;2024-02-28T02:16:54;2.70;99.90
26990;DHT22;14537;47.788;11.858;2024-02-28T02:19:19;2.70;99.90
26990;DHT22;14537;47.788;11.858;2024-02-28T02:21:51;2.80;99.90
26990;DHT22;14537;47.788;11.858;2024-02-28T02:24:17;2.70;99.90
26990;DHT22;14537;47.788;11.858;2024-02-28T02:26:43;2.70;99.90
26990;DHT22;14537;47.788;11.858;2024-02-28T02:29:12;2.70;99.90
26990;DHT22;14537;47.788;11.858;2024-02-28T02:31:37;2.70;99.90
26990;DHT22;14537;47.788;11.858;2024-02-28T02:34:03;2.70;99.90
26990;DHT22;14537;47.788;11.858;2024-02-28T02:36:29;2.60;99.90
26990;DHT22;14537;47.788;11.858;2024-02-28T02:38:54;2.60;99.90
26990;DHT22;14537;47.788;11.858;2024-02-28T02:41:20;2.60;99.90
26990;DHT22;14537;47.788;11.858;2024-02-28T02:43:45;2.60;99.90
26990;DHT22;14537;47.788;11.858;2024-02-28T02:46:11;2.60;99.90
26990;DHT22;14537;47.788;11.858;2024-02-28T02:48:36;2.70;99.90
26990;DHT22;14537;47.788;11.858;2024-02-28T02:51:02;2.70;99.90
26990;DHT22;14537;47.788;11.858;2024-02-28T02:53:28;2.70;99.90
26990;DHT22;14537;47.788;11.858;2024-02-28T02:55:53;2.80;99.90
26990;DHT22;14537;47.788;11.858;2024-02-28T02:58:19;2.80;99.90
26990;DHT22;14537;47.788;11.858;2024-02-28T03:00:45;2.80;99.90
26990;DHT22;14537;47.788;11.858;2024-02-28T03:03:10;2.80;99.90
26990;DHT22;14537;47.788;11.858;2024-02-28T03:05:36;2.90;99.90
26990;DHT22;14537;47.788;11.858;2024-02-28T03:08:02;2.90;99.90
26990;DHT22;14537;47.788;11.858;2024-02-28T03:10:27;3.00;99.90
26990;DHT22;14537;47.788;11.858;2024-02-28T03:12:54;3.00;99.90
26990;DHT22;14537;47.788;11.858;2024-02-28T03:15:19;3.10;99.90
26990;DHT22;14537;47.788;11.858;2024-02-28T03:17:45;3.20;99.90
26990;DHT22;14537;47.788;11.858;2024-02-28T03:20:11;3.30;99.90
26990;DHT22;14537;47.788;11.858;2024-02-28T03:22:39;3.30;99.90
26990;DHT22;14537;47.788;11.858;2024-02-28T03:25:05;3.40;99.90
26990;DHT22;14537;47.788;11.858;2024-02-28T03:27:31;3.40;99.90
26990;DHT22;14537;47.788;11.858;2024-02-28T03:29:57;3.40;99.90
26990;DHT22;14537;47.788;11.858;2024-02-28T03:32:22;3.50;99.90
26990;DHT22;14537;47.788;11.858;2024-02-28T03:34:48;3.50;99.90
26990;DHT22;14537;47.788;11.858;2024-02-28T03:37:14;3.60;99.90
26990;DHT22;14537;47.788;11.858;2024-02-28T03:39:40;3.60;99.90
26990;DHT22;14537;47.788;11.858;2024-02-28T03:42:06;3.70;99.90
26990;DHT22;14537;47.788;11.858;2024-02-28T03:44:31;3.70;99.90
26990;DHT22;14537;47.788;11.858;2024-02-28T03:46:57;3.70;99.90
26990;DHT22;14537;47.788;11.858;2024-02-28T03:49:22;3.70;99.90
26990;DHT22;14537;47.788;11.858;2024-02-28T03:51:48;3.80;99.90
26990;DHT22;14537;47.788;11.858;2024-02-28T03:54:14;3.80;99.90
26990;DHT22;14537;47.788;11.858;2024-02-28T03:56:39;3.80;99.90
26990;DHT22;14537;47.788;11.858;2024-02-28T03:59:05;3.90;99.90
26990;DHT22;14537;47.788;11.858;2024-02-28T04:01:30;3.90;99.90
26990;DHT22;14537;47.788;11.858;2024-02-28T04:03:56;3.80;99.90
26990;DHT22;14537;47.788;11.858;2024-02-28T04:06:22;3.80;99.90
26990;DHT22;14537;47.788;11.858;2024-02-28T04:08:47;3.80;99.90
26990;DHT22;14537;47.788;11.858;2024-02-28T04:11:13;3.80;99.90
26990;DHT22;14537;47.788;11.858;2024-02-28T04:13:40;3.80;99.90
26990;DHT22;14537;47.788;11.858;2024-02-28T04:16:06;3.80;99.90
26990;DHT22;14537;47.788;11.858;2024-02-28T04:18:31;3.80;99.90
26990;DHT22;14537;47.788;11.858;2024-02-28T04:20:58;3.80;99.90
26990;DHT22;14537;47.788;11.858;2024-02-28T04:23:24;3.80;99.90
26990;DHT22;14537;47.788;11.858;2024-02-28T04:25:50;3.90;99.90
26990;DHT22;14537;47.788;11.858;2024-02-28T04:28:15;3.80;99.90
26990;DHT22;14537;47.788;11.858;2024-02-28T04:30:41;3.80;99.90
26990;DHT22;14537;47.788;11.858;2024-02-28T04:33:07;3.80;99.90
26990;DHT22;14537;47.788;11.858;2024-02-28T04:35:33;3.80;99.90
26990;DHT22;14537;47.788;11.858;2024-02-28T04:37:59;3.90;99.90
26990;DHT22;14537;47.788;11.858;2024-02-28T04:40:24;3.80;99.90
26990;DHT22;14537;47.788;11.858;2024-02-28T04:42:50;3.80;99.90
26990;DHT22;14537;47.788;11.858;2024-02-28T04:45:16;3.80;99.90
26990;DHT22;14537;47.788;11.858;2024-02-28T04:47:41;3.80;99.90
26990;DHT22;14537;47.788;11.858;2024-02-28T04:50:07;3.80;99.90
26990;DHT22;14537;47.788;11.858;2024-02-28T04:52:33;3.90;99.90
26990;DHT22;14537;47.788;11.858;2024-02-28T04:54:59;3.90;99.90
26990;DHT22;14537;47.788;11.858;2024-02-28T04:57:25;4.00;99.90
26990;DHT22;14537;47.788;11.858;2024-02-28T04:59:50;4.00;99.90
26990;DHT22;14537;47.788;11.858;2024-02-28T05:02:16;4.10;99.90
26990;DHT22;14537;47.788;11.858;2024-02-28T05:04:42;4.10;99.90
26990;DHT22;14537;47.788;11.858;2024-02-28T05:07:08;4.10;99.90
26990;DHT22;14537;47.788;11.858;2024-02-28T05:09:34;4.00;99.90
26990;DHT22;14537;47.788;11.858;2024-02-28T05:11:59;4.00;99.90
26990;DHT22;14537;47.788;11.858;2024-02-28T05:14:25;4.00;99.90
26990;DHT22;14537;47.788;11.858;2024-02-28T05:16:51;4.00;99.90
26990;DHT22;14537;47.788;11.858;2024-02-28T05:19:16;4.00;99.90
26990;DHT22;14537;47.788;11.858;2024-02-28T05:21:43;4.00;99.90
26990;DHT22;14537;47.788;11.858;2024-02-28T05:24:10;4.00;99.90
26990;DHT22;14537;47.788;11.858;2024-02-28T05:26:36;4.00;99.90
26990;DHT22;14537;47.788;11.858;2024-02-28T05:29:03;4.00;99.90
26990;DHT22;14537;47.788;11.858;2024-02-28T05:31:29;4.00;99.90
26990;DHT22;14537;47.788;11.858;2024-02-28T05:33:56;4.00;99.90
26990;DHT22;14537;47.788;11.858;2024-02-28T05:36:23;4.10;99.90
26990;DHT22;14537;47.788;11.858;2024-02-28T05:38:49;4.10;99.90
26990;DHT22;14537;47.788;11.858;2024-02-28T05:41:18;4.10;99.90
26990;DHT22;14537;47.788;11.858;2024-02-28T05:43:44;4.10;99.90
26990;DHT22;14537;47.788;11.858;2024-02-28T05:46:11;4.10;99.90
26990;DHT22;14537;47.788;11.858;2024-02-28T05:48:36;4.20;99.90
26990;DHT22;14537;47.788;11.858;2024-02-28T05:51:02;4.20;99.90
26990;DHT22;14537;47.788;11.858;2024-02-28T05:53:29;4.20;99.90
26990;DHT22;14537;47.788;11.858;2024-02-28T05:55:57;4.20;99.90
26990;DHT22;14537;47.788;11.858;2024-02-28T05:58:23;4.20;99.90
26990;DHT22;14537;47.788;11.858;2024-02-28T06:00:50;4.20;99.90
26990;DHT22;14537;47.788;11.858;2024-02-28T06:03:16;4.20;99.90
26990;DHT22;14537;47.788;11.858;2024-02-28T06:05:42;4.20;99.90
26990;DHT22;14537;47.788;11.858;2024-02-28T06:08:07;4.20;99.90
26990;DHT22;14537;47.788;11.858;2024-02-28T06:10:33;4.20;99.90
26990;DHT22;14537;47.788;11.858;2024-02-28T06:12:58;4.20;99.90
26990;DHT22;14537;47.788;11.858;2024-02-28T06:15:24;4.20;99.90
26990;DHT22;14537;47.788;11.858;2024-02-28T06:17:50;4.20;99.90
26990;DHT22;14537;47.788;11.858;2024-02-28T06:20:15;4.20;99.90
26990;DHT22;14537;47.788;11.858;2024-02-28T06:22:41;4.20;99.90
26990;DHT22;14537;47.788;11.858;2024-02-28T06:25:07;4.20;99.90
26990;DHT22;14537;47.788;11.858;2024-02-28T06:27:39;4.20;99.90
26990;DHT22;14537;47.788;11.858;2024-02-28T06:30:06;4.20;99.90
26990;DHT22;14537;47.788;11.858;2024-02-28T06:32:32;4.20;99.90
26990;DHT22;14537;47.788;11.858;2024-02-28T06:34:58;4.30;99.90
26990;DHT22;14537;47.788;11.858;2024-02-28T06:37:23;4.20;99.90
26990;DHT22;14537;47.788;11.858;2024-02-28T06:39:49;4.20;99.90
26990;DHT22;14537;47.788;11.858;2024-02-28T06:42:14;4.20;99.90
26990;DHT22;14537;47.788;11.858;2024-02-28T06:44:40;4.20;99.90
26990;DHT22;14537;47.788;11.858;2024-02-28T06:47:07;4.30;99.90
26990;DHT22;14537;47.788;11.858;2024-02-28T06:49:32;4.30;99.90
26990;DHT22;14537;47.788;11.858;2024-02-28T06:51:58;4.30;99.90
26990;DHT22;14537;47.788;11.858;2024-02-28T06:54:27;4.30;99.90
26990;DHT22;14537;47.788;11.858;2024-02-28T06:56:52;4.30;99.90
26990;DHT22;14537;47.788;11.858;2024-02-28T06:59:18;4.30;99.90
26990;DHT22;14537;47.788;11.858;2024-02-28T07:01:43;4.40;99.90
26990;DHT22;14537;47.788;11.858;2024-02-28T07:04:09;4.40;99.90
26990;DHT22;14537;47.788;11.858;2024-02-28T07:06:35;4.40;99.90
26990;DHT22;14537;47.788;11.858;2024-02-28T07:09:00;4.40;99.90
26990;DHT22;14537;47.788;11.858;2024-02-28T07:11:26;4.40;99.90
26990;DHT22;14537;47.788;11.858;2024-02-28T07:13:51;4.40;99.90
26990;DHT22;14537;47.788;11.858;2024-02-28T07:16:17;4.50;99.90
26990;DHT22;14537;47.788;11.858;2024-02-28T07:18:43;4.50;99.90
26990;DHT22;14537;47.788;11.858;2024-02-28T07:21:08;4.50;99.90
26990;DHT22;14537;47.788;11.858;2024-02-28T07:23:34;4.50;99.90
26990;DHT22;14537;47.788;11.858;2024-02-28T07:25:59;4.50;99.90
26990;DHT22;14537;47.788;11.858;2024-02-28T07:28:25;4.50;99.90
26990;DHT22;14537;47.788;11.858;2024-02-28T07:30:51;4.50;99.90
26990;DHT22;14537;47.788;11.858;2024-02-28T07:33:16;4.50;99.90
26990;DHT22;14537;47.788;11.858;2024-02-28T07:35:46;4.60;99.90
26990;DHT22;14537;47.788;11.858;2024-02-28T07:38:11;4.60;99.90
26990;DHT22;14537;47.788;11.858;2024-02-28T07:40:37;4.60;99.90
26990;DHT22;14537;47.788;11.858;2024-02-28T07:43:03;4.60;99.90
26990;DHT22;14537;47.788;11.858;2024-02-28T07:45:28;4.60;99.90
26990;DHT22;14537;47.788;11.858;2024-02-28T07:47:54;4.50;99.90
26990;DHT22;14537;47.788;11.858;2024-02-28T07:50:20;4.50;99.90
26990;DHT22;14537;47.788;11.858;2024-02-28T07:52:45;4.60;99.90
26990;DHT22;14537;47.788;11.858;2024-02-28T07:55:11;4.60;99.90
26990;DHT22;14537;47.788;11.858;2024-02-28T07:57:37;4.60;99.90
26990;DHT22;14537;47.788;11.858;2024-02-28T08:00:03;4.70;99.90
26990;DHT22;14537;47.788;11.858;2024-02-28T08:02:29;4.70;99.90
26990;DHT22;14537;47.788;11.858;2024-02-28T08:04:54;4.70;99.90
26990;DHT22;14537;47.788;11.858;2024-02-28T08:07:20;4.80;99.90
26990;DHT22;14537;47.788;11.858;2024-02-28T08:09:45;4.90;99.90
26990;DHT22;14537;47.788;11.858;2024-02-28T08:12:11;4.80;99.90
26990;DHT22;14537;47.788;11.858;2024-02-28T08:14:37;4.90;99.90
26990;DHT22;14537;47.788;11.858;2024-02-28T08:17:02;4.90;99.90
26990;DHT22;14537;47.788;11.858;2024-02-28T08:19:28;4.90;99.90
26990;DHT22;14537;47.788;11.858;2024-02-28T08:21:53;4.90;99.90
26990;DHT22;14537;47.788;11.858;2024-02-28T08:24:19;4.90;99.90
26990;DHT22;14537;47.788;11.858;2024-02-28T08:26:45;4.90;99.90
26990;DHT22;14537;47.788;11.858;2024-02-28T08:29:10;4.90;99.90
26990;DHT22;14537;47.788;11.858;2024-02-28T08:31:43;4.90;99.90
26990;DHT22;14537;47.788;11.858;2024-02-28T08:34:09;4.90;99.90
26990;DHT22;14537;47.788;11.858;2024-02-28T08:36:35;5.00;99.90
26990;DHT22;14537;47.788;11.858;2024-02-28T08:39:01;5.00;99.90
26990;DHT22;14537;47.788;11.858;2024-02-28T08:41:26;5.00;99.90
26990;DHT22;14537;47.788;11.858;2024-02-28T08:43:52;5.10;99.90
26990;DHT22;14537;47.788;11.858;2024-02-28T08:46:17;5.00;99.90
26990;DHT22;14537;47.788;11.858;2024-02-28T08:48:43;5.10;99.90
26990;DHT22;14537;47.788;11.858;2024-02-28T08:51:09;5.10;99.90
26990;DHT22;14537;47.788;11.858;2024-02-28T08:53:34;5.10;99.90
26990;DHT22;14537;47.788;11.858;2024-02-28T08:56:00;5.10;99.90
26990;DHT22;14537;47.788;11.858;2024-02-28T08:58:26;5.10;99.90
26990;DHT22;14537;47.788;11.858;2024-02-28T09:00:51;5.10;99.90
26990;DHT22;14537;47.788;11.858;2024-02-28T09:03:17;5.10;99.90
26990;DHT22;14537;47.788;11.858;2024-02-28T09:05:43;5.10;99.90
26990;DHT22;14537;47.788;11.858;2024-02-28T09:08:08;4.90;99.90
26990;DHT22;14537;47.788;11.858;2024-02-28T09:10:34;4.90;99.90
26990;DHT22;14537;47.788;11.858;2024-02-28T09:13:00;4.90;99.90
26990;DHT22;14537;47.788;11.858;2024-02-28T09:15:26;5.00;99.90
26990;DHT22;14537;47.788;11.858;2024-02-28T09:17:51;5.10;99.90
26990;DHT22;14537;47.788;11.858;2024-02-28T09:20:17;5.10;99.90
26990;DHT22;14537;47.788;11.858;2024-02-28T09:22:43;5.20;99.90
26990;DHT22;14537;47.788;11.858;2024-02-28T09:25:09;5.20;99.90
26990;DHT22;14537;47.788;11.858;2024-02-28T09:27:37;5.20;99.90
26990;DHT22;14537;47.788;11.858;2024-02-28T09:30:03;5.20;99.90
26990;DHT22;14537;47.788;11.858;2024-02-28T09:32:29;5.20;99.90
26990;DHT22;14537;47.788;11.858;2024-02-28T09:34:54;5.10;99.90
26990;DHT22;14537;47.788;11.858;2024-02-28T09:37:20;5.10;99.90
26990;DHT22;14537;47.788;11.858;2024-02-28T09:39:48;5.20;99.90
26990;DHT22;14537;47.788;11.858;2024-02-28T09:42:14;5.20;99.90
26990;DHT22;14537;47.788;11.858;2024-02-28T09:44:40;5.20;99.90
26990;DHT22;14537;47.788;11.858;2024-02-28T09:47:08;5.30;99.90
26990;DHT22;14537;47.788;11.858;2024-02-28T09:49:34;5.30;99.90
26990;DHT22;14537;47.788;11.858;2024-02-28T09:52:03;5.40;99.90
26990;DHT22;14537;47.788;11.858;2024-02-28T09:54:29;5.40;99.90
26990;DHT22;14537;47.788;11.858;2024-02-28T09:56:55;5.50;99.90
26990;DHT22;14537;47.788;11.858;2024-02-28T09:59:23;5.40;99.90
26990;DHT22;14537;47.788;11.858;2024-02-28T10:01:56;5.30;99.90
26990;DHT22;14537;47.788;11.858;2024-02-28T10:04:24;5.10;99.90
26990;DHT22;14537;47.788;11.858;2024-02-28T10:06:50;5.10;99.90
26990;DHT22;14537;47.788;11.858;2024-02-28T10:09:16;5.10;99.90
26990;DHT22;14537;47.788;11.858;2024-02-28T10:11:42;5.00;99.90
26990;DHT22;14537;47.788;11.858;2024-02-28T10:14:14;5.10;99.90
26990;DHT22;14537;47.788;11.858;2024-02-28T10:16:42;5.10;99.90
26990;DHT22;14537;47.788;11.858;2024-02-28T10:19:08;5.10;99.90
26990;DHT22;14537;47.788;11.858;2024-02-28T10:21:33;5.20;99.90
26990;DHT22;14537;47.788;11.858;2024-02-28T10:23:59;5.30;99.90
26990;DHT22;14537;47.788;11.858;2024-02-28T10:26:25;5.30;99.90
26990;DHT22;14537;47.788;11.858;2024-02-28T10:28:51;5.30;99.90
26990;DHT22;14537;47.788;11.858;2024-02-28T10:31:17;5.30;99.90
26990;DHT22;14537;47.788;11.858;2024-02-28T10:33:42;5.30;99.90
26990;DHT22;14537;47.788;11.858;2024-02-28T10:36:08;5.40;99.90
26990;DHT22;14537;47.788;11.858;2024-02-28T10:38:34;5.50;99.90
26990;DHT22;14537;47.788;11.858;2024-02-28T10:41:01;5.50;99.90
26990;DHT22;14537;47.788;11.858;2024-02-28T10:43:28;5.60;99.90
26990;DHT22;14537;47.788;11.858;2024-02-28T10:46:00;5.70;99.90
26990;DHT22;14537;47.788;11.858;2024-02-28T10:48:26;5.70;99.90
26990;DHT22;14537;47.788;11.858;2024-02-28T10:50:53;5.70;99.90
26990;DHT22;14537;47.788;11.858;2024-02-28T10:53:26;5.70;99.90
26990;DHT22;14537;47.788;11.858;2024-02-28T10:56:00;5.70;99.90
26990;DHT22;14537;47.788;11.858;2024-02-28T10:58:33;5.70;99.90
26990;DHT22;14537;47.788;11.858;2024-02-28T11:01:00;5.50;99.90
26990;DHT22;14537;47.788;11.858;2024-02-28T11:03:26;5.60;99.90
26990;DHT22;14537;47.788;11.858;2024-02-28T11:05:52;5.50;99.90
26990;DHT22;14537;47.788;11.858;2024-02-28T11:08:22;5.50;99.90
26990;DHT22;14537;47.788;11.858;2024-02-28T11:10:58;5.50;99.90
26990;DHT22;14537;47.788;11.858;2024-02-28T11:13:26;5.50;99.90
26990;DHT22;14537;47.788;11.858;2024-02-28T11:15:52;5.60;99.90
26990;DHT22;14537;47.788;11.858;2024-02-28T11:18:18;5.70;99.90
26990;DHT22;14537;47.788;11.858;2024-02-28T11:20:45;5.80;99.90
26990;DHT22;14537;47.788;11.858;2024-02-28T11:23:14;5.70;99.90
26990;DHT22;14537;47.788;11.858;2024-02-28T11:25:42;5.70;99.90
26990;DHT22;14537;47.788;11.858;2024-02-28T11:28:08;5.60;99.90
26990;DHT22;14537;47.788;11.858;2024-02-28T11:30:34;5.60;99.90
26990;DHT22;14537;47.788;11.858;2024-02-28T11:33:00;5.70;99.90
26990;DHT22;14537;47.788;11.858;2024-02-28T11:35:26;5.70;99.90
26990;DHT22;14537;47.788;11.858;2024-02-28T11:37:54;5.80;99.90
26990;DHT22;14537;47.788;11.858;2024-02-28T11:40:23;5.90;99.90
26990;DHT22;14537;47.788;11.858;2024-02-28T11:42:51;6.00;99.90
26990;DHT22;14537;47.788;11.858;2024-02-28T11:45:17;6.00;99.90
26990;DHT22;14537;47.788;11.858;2024-02-28T11:47:42;6.00;99.90
26990;DHT22;14537;47.788;11.858;2024-02-28T11:50:08;6.00;99.90
26990;DHT22;14537;47.788;11.858;2024-02-28T11:52:34;6.10;99.90
26990;DHT22;14537;47.788;11.858;2024-02-28T11:54:59;6.10;99.90
26990;DHT22;14537;47.788;11.858;2024-02-28T11:57:28;6.10;99.90
26990;DHT22;14537;47.788;11.858;2024-02-28T11:59:56;6.10;99.90
26990;DHT22;14537;47.788;11.858;2024-02-28T12:02:22;6.00;99.90
26990;DHT22;14537;47.788;11.858;2024-02-28T12:04:51;5.90;99.90
26990;DHT22;14537;47.788;11.858;2024-02-28T12:07:18;5.90;99.90
26990;DHT22;14537;47.788;11.858;2024-02-28T12:09:44;5.90;99.90
26990;DHT22;14537;47.788;11.858;2024-02-28T12:12:12;5.90;99.90
26990;DHT22;14537;47.788;11.858;2024-02-28T12:14:37;5.90;99.90
26990;DHT22;14537;47.788;11.858;2024-02-28T12:17:04;5.80;99.90
26990;DHT22;14537;47.788;11.858;2024-02-28T12:19:30;5.80;99.90
26990;DHT22;14537;47.788;11.858;2024-02-28T12:21:56;5.90;99.90
26990;DHT22;14537;47.788;11.858;2024-02-28T12:24:22;5.90;99.90
26990;DHT22;14537;47.788;11.858;2024-02-28T12:26:48;5.90;99.90
26990;DHT22;14537;47.788;11.858;2024-02-28T12:29:14;5.90;99.90
26990;DHT22;14537;47.788;11.858;2024-02-28T12:31:39;5.90;99.90
26990;DHT22;14537;47.788;11.858;2024-02-28T12:34:05;5.90;99.90
26990;DHT22;14537;47.788;11.858;2024-02-28T12:36:31;6.00;99.90
26990;DHT22;14537;47.788;11.858;2024-02-28T12:38:58;6.00;99.90
26990;DHT22;14537;47.788;11.858;2024-02-28T12:41:25;6.00;99.90
26990;DHT22;14537;47.788;11.858;2024-02-28T12:43:51;6.10;99.90
26990;DHT22;14537;47.788;11.858;2024-02-28T12:46:16;6.00;99.90
26990;DHT22;14537;47.788;11.858;2024-02-28T12:48:42;6.00;99.90
26990;DHT22;14537;47.788;11.858;2024-02-28T12:51:10;6.00;99.90
26990;DHT22;14537;47.788;11.858;2024-02-28T12:53:36;6.00;99.90
26990;DHT22;14537;47.788;11.858;2024-02-28T12:56:02;5.90;99.90
26990;DHT22;14537;47.788;11.858;2024-02-28T12:58:27;5.80;99.90
26990;DHT22;14537;47.788;11.858;2024-02-28T13:00:53;5.80;99.90
26990;DHT22;14537;47.788;11.858;2024-02-28T13:03:19;5.90;99.90
26990;DHT22;14537;47.788;11.858;2024-02-28T13:05:44;5.90;99.90
26990;DHT22;14537;47.788;11.858;2024-02-28T13:08:10;5.80;99.90
26990;DHT22;14537;47.788;11.858;2024-02-28T13:10:36;5.80;99.90
26990;DHT22;14537;47.788;11.858;2024-02-28T13:13:06;5.70;99.90
26990;DHT22;14537;47.788;11.858;2024-02-28T13:15:33;5.70;99.90
26990;DHT22;14537;47.788;11.858;2024-02-28T13:17:59;5.80;99.90
26990;DHT22;14537;47.788;11.858;2024-02-28T13:20:26;5.80;99.90
26990;DHT22;14537;47.788;11.858;2024-02-28T13:22:52;5.80;99.90
26990;DHT22;14537;47.788;11.858;2024-02-28T13:25:17;5.80;99.90
26990;DHT22;14537;47.788;11.858;2024-02-28T13:27:45;5.70;99.90
26990;DHT22;14537;47.788;11.858;2024-02-28T13:30:11;5.70;99.90
26990;DHT22;14537;47.788;11.858;2024-02-28T13:32:37;5.80;99.90
26990;DHT22;14537;47.788;11.858;2024-02-28T13:35:03;5.80;99.90
26990;DHT22;14537;47.788;11.858;2024-02-28T13:37:29;5.90;99.90
26990;DHT22;14537;47.788;11.858;2024-02-28T13:39:55;6.00;99.90
26990;DHT22;14537;47.788;11.858;2024-02-28T13:42:21;6.00;99.90
26990;DHT22;14537;47.788;11.858;2024-02-28T13:44:49;6.00;99.90
26990;DHT22;14537;47.788;11.858;2024-02-28T13:47:15;6.10;99.90
26990;DHT22;14537;47.788;11.858;2024-02-28T13:49:41;6.10;99.90
26990;DHT22;14537;47.788;11.858;2024-02-28T13:52:07;6.10;99.90
26990;DHT22;14537;47.788;11.858;2024-02-28T13:54:35;6.10;99.90
26990;DHT22;14537;47.788;11.858;2024-02-28T13:57:01;6.00;99.90
26990;DHT22;14537;47.788;11.858;2024-02-28T13:59:27;6.00;99.90
26990;DHT22;14537;47.788;11.858;2024-02-28T14:01:53;6.00;99.90
26990;DHT22;14537;47.788;11.858;2024-02-28T14:04:19;6.00;99.90
26990;DHT22;14537;47.788;11.858;2024-02-28T14:06:44;5.90;99.90
26990;DHT22;14537;47.788;11.858;2024-02-28T14:09:11;5.90;99.90
26990;DHT22;14537;47.788;11.858;2024-02-28T14:11:37;5.90;99.90
26990;DHT22;14537;47.788;11.858;2024-02-28T14:14:03;5.90;99.90
26990;DHT22;14537;47.788;11.858;2024-02-28T14:16:29;5.90;99.90
26990;DHT22;14537;47.788;11.858;2024-02-28T14:18:57;5.90;99.90
26990;DHT22;14537;47.788;11.858;2024-02-28T14:21:23;5.90;99.90
26990;DHT22;14537;47.788;11.858;2024-02-28T14:23:50;5.90;99.90
26990;DHT22;14537;47.788;11.858;2024-02-28T14:26:16;5.90;99.90
26990;DHT22;14537;47.788;11.858;2024-02-28T14:28:41;5.90;99.90
26990;DHT22;14537;47.788;11.858;2024-02-28T14:31:07;5.90;99.90
26990;DHT22;14537;47.788;11.858;2024-02-28T14:33:33;6.00;99.90
26990;DHT22;14537;47.788;11.858;2024-02-28T14:35:58;6.00;99.90
26990;DHT22;14537;47.788;11.858;2024-02-28T14:38:25;6.00;99.90
26990;DHT22;14537;47.788;11.858;2024-02-28T14:40:51;6.00;99.90
26990;DHT22;14537;47.788;11.858;2024-02-28T14:43:17;6.10;99.90
26990;DHT22;14537;47.788;11.858;2024-02-28T14:45:43;6.10;99.90
26990;DHT22;14537;47.788;11.858;2024-02-28T14:48:08;6.10;99.90
26990;DHT22;14537;47.788;11.858;2024-02-28T14:50:34;6.10;99.90
26990;DHT22;14537;47.788;11.858;2024-02-28T14:52:59;6.10;99.90
26990;DHT22;14537;47.788;11.858;2024-02-28T14:55:25;6.00;99.90
26990;DHT22;14537;47.788;11.858;2024-02-28T14:57:50;6.00;99.90
26990;DHT22;14537;47.788;11.858;2024-02-28T15:00:16;6.00;99.90
26990;DHT22;14537;47.788;11.858;2024-02-28T15:02:43;6.00;99.90
26990;DHT22;14537;47.788;11.858;2024-02-28T15:05:11;6.00;99.90
26990;DHT22;14537;47.788;11.858;2024-02-28T15:07:37;6.00;99.90
26990;DHT22;14537;47.788;11.858;2024-02-28T15:10:05;6.00;99.90
26990;DHT22;14537;47.788;11.858;2024-02-28T15:12:32;5.90;99.90
26990;DHT22;14537;47.788;11.858;2024-02-28T15:15:02;5.90;99.90
26990;DHT22;14537;47.788;11.858;2024-02-28T15:17:28;5.80;99.90
26990;DHT22;14537;47.788;11.858;2024-02-28T15:19:54;5.80;99.90
26990;DHT22;14537;47.788;11.858;2024-02-28T15:22:19;5.80;99.90